This is the latest recevied weather packets stored in our database for station/object KC1BRV. If no packets are shown the sender has not sent any weather packets the latest 10 day(s).
| Time | Temp. | Humidity | Pressure | Rain* | Wind** | Luminosity | Snow |
|---|---|---|---|---|---|---|---|
| 1777650766 | 13.89° C | 50% | 1011.4 hPa | 0 mm | - | 545 W/m² | - |
| 1777650463 | 15° C | 47% | 1011.7 hPa | 0 mm | - | 841 W/m² | - |
| 1777650160 | 14.44° C | 52% | 1011.6 hPa | 0 mm | - | 865 W/m² | - |
| 1777649858 | 13.89° C | 53% | 1011.7 hPa | 0 mm | - | 459 W/m² | - |
| 1777649555 | 13.89° C | 50% | 1011.8 hPa | 0 mm | - | 748 W/m² | - |
| 1777649251 | 13.89° C | 52% | 1011.7 hPa | 0 mm | - | 732 W/m² | - |
| 1777648948 | 13.33° C | 57% | 1011.8 hPa | 0 mm | - | 729 W/m² | - |
| 1777648646 | 12.78° C | 56% | 1011.7 hPa | 0 mm | - | 731 W/m² | - |
| 1777648342 | 12.78° C | 55% | 1011.8 hPa | 0 mm | - | 164 W/m² | - |
| 1777648038 | 12.78° C | 56% | 1011.9 hPa | 0 mm | - | 326 W/m² | - |
| 1777647734 | 12.22° C | 56% | 1011.8 hPa | 0 mm | - | 594 W/m² | - |
| 1777647431 | 11.67° C | 61% | 1011.9 hPa | 0 mm | - | 314 W/m² | - |
| 1777647129 | 11.67° C | 62% | 1012 hPa | 0 mm | - | 283 W/m² | - |
| 1777646825 | 11.67° C | 60% | 1011.9 hPa | 0 mm | - | 241 W/m² | - |
| 1777646520 | 11.67° C | 63% | 1012.1 hPa | 0 mm | - | 183 W/m² | - |
| 1777646216 | 11.67° C | 59% | 1012 hPa | 0 mm | - | 193 W/m² | - |
| 1777645914 | 12.22° C | 57% | 1011.9 hPa | 0 mm | - | 260 W/m² | - |
| 1777645611 | 12.22° C | 58% | 1012.1 hPa | 0 mm | - | 334 W/m² | - |
| 1777645307 | 11.67° C | 62% | 1011.8 hPa | 0 mm | - | 380 W/m² | - |
| 1777645003 | 11.67° C | 61% | 1011.9 hPa | 0 mm | - | 270 W/m² | - |
| 1777644701 | 11.67° C | 60% | 1011.8 hPa | 0 mm | - | 254 W/m² | - |
| 1777644396 | 11.67° C | 61% | 1011.8 hPa | 0 mm | - | 233 W/m² | - |
| 1777644093 | 11.67° C | 59% | 1011.9 hPa | 0 mm | - | 221 W/m² | - |
| 1777643790 | 11.67° C | 58% | 1011.9 hPa | 0 mm | - | 139 W/m² | - |
| 1777643487 | 12.22° C | 58% | 1011.7 hPa | 0 mm | - | 133 W/m² | - |
* Rain latest hour (hover to see other rain measurements)
** Current wind speed in m/s (hover to see current wind gust speed)